sensor_id;sensor_type;location;lat;lon;timestamp;P1;durP1;ratioP1;P2;durP2;ratioP2
29546;SDS011;40782;47.264;11.330;2022-09-30T00:02:16;4.28;;;3.88;;
29546;SDS011;40782;47.264;11.330;2022-09-30T00:04:43;6.57;;;3.92;;
29546;SDS011;40782;47.264;11.330;2022-09-30T00:07:12;4.50;;;4.07;;
29546;SDS011;40782;47.264;11.330;2022-09-30T00:09:39;4.68;;;4.28;;
29546;SDS011;40782;47.264;11.330;2022-09-30T00:12:06;4.10;;;3.80;;
29546;SDS011;40782;47.264;11.330;2022-09-30T00:14:34;3.90;;;3.60;;
29546;SDS011;40782;47.264;11.330;2022-09-30T00:17:02;4.57;;;3.88;;
29546;SDS011;40782;47.264;11.330;2022-09-30T00:19:29;4.35;;;4.05;;
29546;SDS011;40782;47.264;11.330;2022-09-30T00:21:57;4.90;;;4.50;;
29546;SDS011;40782;47.264;11.330;2022-09-30T00:24:26;5.40;;;4.95;;
29546;SDS011;40782;47.264;11.330;2022-09-30T00:26:53;4.40;;;3.97;;
29546;SDS011;40782;47.264;11.330;2022-09-30T00:29:20;4.68;;;4.22;;
29546;SDS011;40782;47.264;11.330;2022-09-30T00:31:48;4.68;;;4.25;;
29546;SDS011;40782;47.264;11.330;2022-09-30T00:34:15;4.57;;;4.20;;
29546;SDS011;40782;47.264;11.330;2022-09-30T00:36:44;5.20;;;4.50;;
29546;SDS011;40782;47.264;11.330;2022-09-30T00:39:13;4.97;;;4.57;;
29546;SDS011;40782;47.264;11.330;2022-09-30T00:41:44;5.40;;;4.90;;
29546;SDS011;40782;47.264;11.330;2022-09-30T00:50:11;5.28;;;4.78;;
29546;SDS011;40782;47.264;11.330;2022-09-30T00:52:45;5.45;;;4.95;;
29546;SDS011;40782;47.264;11.330;2022-09-30T00:55:21;5.78;;;5.25;;
29546;SDS011;40782;47.264;11.330;2022-09-30T00:57:56;7.10;;;5.13;;
29546;SDS011;40782;47.264;11.330;2022-09-30T01:00:26;5.53;;;5.10;;
29546;SDS011;40782;47.264;11.330;2022-09-30T01:02:53;5.53;;;5.00;;
29546;SDS011;40782;47.264;11.330;2022-09-30T01:05:21;6.05;;;5.55;;
29546;SDS011;40782;47.264;11.330;2022-09-30T01:07:50;6.35;;;5.85;;
29546;SDS011;40782;47.264;11.330;2022-09-30T01:10:19;5.88;;;5.38;;
29546;SDS011;40782;47.264;11.330;2022-09-30T01:12:46;8.35;;;5.80;;
29546;SDS011;40782;47.264;11.330;2022-09-30T01:15:15;6.63;;;6.03;;
29546;SDS011;40782;47.264;11.330;2022-09-30T01:17:45;7.18;;;6.40;;
29546;SDS011;40782;47.264;11.330;2022-09-30T01:20:24;7.32;;;6.60;;
29546;SDS011;40782;47.264;11.330;2022-09-30T01:23:14;7.38;;;6.63;;
29546;SDS011;40782;47.264;11.330;2022-09-30T01:25:59;7.10;;;6.40;;
29546;SDS011;40782;47.264;11.330;2022-09-30T01:28:50;6.07;;;5.47;;
29546;SDS011;40782;47.264;11.330;2022-09-30T01:31:43;6.75;;;6.18;;
29546;SDS011;40782;47.264;11.330;2022-09-30T01:34:16;6.80;;;6.20;;
29546;SDS011;40782;47.264;11.330;2022-09-30T01:36:57;7.10;;;6.43;;
29546;SDS011;40782;47.264;11.330;2022-09-30T01:39:35;7.45;;;6.75;;
29546;SDS011;40782;47.264;11.330;2022-09-30T01:42:11;6.53;;;5.93;;
29546;SDS011;40782;47.264;11.330;2022-09-30T01:44:52;7.13;;;6.50;;
29546;SDS011;40782;47.264;11.330;2022-09-30T01:47:35;7.03;;;6.40;;
29546;SDS011;40782;47.264;11.330;2022-09-30T01:50:11;7.60;;;6.97;;
29546;SDS011;40782;47.264;11.330;2022-09-30T01:52:47;7.43;;;6.72;;
29546;SDS011;40782;47.264;11.330;2022-09-30T01:55:24;7.25;;;6.53;;
29546;SDS011;40782;47.264;11.330;2022-09-30T01:57:57;7.47;;;6.78;;
29546;SDS011;40782;47.264;11.330;2022-09-30T02:00:30;7.03;;;6.43;;
29546;SDS011;40782;47.264;11.330;2022-09-30T02:03:03;6.78;;;6.18;;
29546;SDS011;40782;47.264;11.330;2022-09-30T02:05:35;6.55;;;5.95;;
29546;SDS011;40782;47.264;11.330;2022-09-30T02:08:07;6.83;;;6.30;;
29546;SDS011;40782;47.264;11.330;2022-09-30T02:10:41;7.68;;;6.97;;
29546;SDS011;40782;47.264;11.330;2022-09-30T02:13:14;10.90;;;8.23;;
29546;SDS011;40782;47.264;11.330;2022-09-30T02:15:47;7.95;;;7.25;;
29546;SDS011;40782;47.264;11.330;2022-09-30T02:18:22;8.25;;;7.45;;
29546;SDS011;40782;47.264;11.330;2022-09-30T02:20:56;8.27;;;7.47;;
29546;SDS011;40782;47.264;11.330;2022-09-30T02:23:27;8.13;;;7.43;;
29546;SDS011;40782;47.264;11.330;2022-09-30T02:25:58;10.63;;;9.57;;
29546;SDS011;40782;47.264;11.330;2022-09-30T02:28:32;9.93;;;8.93;;
29546;SDS011;40782;47.264;11.330;2022-09-30T02:31:03;10.93;;;9.82;;
29546;SDS011;40782;47.264;11.330;2022-09-30T02:33:37;14.25;;;12.80;;
29546;SDS011;40782;47.264;11.330;2022-09-30T02:36:08;12.20;;;10.75;;
29546;SDS011;40782;47.264;11.330;2022-09-30T02:38:42;13.70;;;12.00;;
29546;SDS011;40782;47.264;11.330;2022-09-30T02:41:12;12.98;;;11.20;;
29546;SDS011;40782;47.264;11.330;2022-09-30T02:43:43;13.07;;;11.80;;
29546;SDS011;40782;47.264;11.330;2022-09-30T02:46:12;12.70;;;11.38;;
29546;SDS011;40782;47.264;11.330;2022-09-30T02:48:55;12.50;;;11.20;;
29546;SDS011;40782;47.264;11.330;2022-09-30T02:51:29;12.75;;;11.45;;
29546;SDS011;40782;47.264;11.330;2022-09-30T02:54:09;11.45;;;10.35;;
29546;SDS011;40782;47.264;11.330;2022-09-30T02:56:47;11.90;;;10.77;;
29546;SDS011;40782;47.264;11.330;2022-09-30T02:59:20;12.75;;;11.50;;
29546;SDS011;40782;47.264;11.330;2022-09-30T03:01:48;14.07;;;12.35;;
29546;SDS011;40782;47.264;11.330;2022-09-30T03:04:18;13.57;;;12.18;;
29546;SDS011;40782;47.264;11.330;2022-09-30T03:06:48;14.40;;;12.90;;
29546;SDS011;40782;47.264;11.330;2022-09-30T03:09:16;12.98;;;11.70;;
29546;SDS011;40782;47.264;11.330;2022-09-30T03:11:43;13.43;;;12.00;;
29546;SDS011;40782;47.264;11.330;2022-09-30T03:17:18;14.80;;;13.20;;
29546;SDS011;40782;47.264;11.330;2022-09-30T03:20:02;14.18;;;12.77;;
29546;SDS011;40782;47.264;11.330;2022-09-30T03:25:46;17.50;;;15.43;;
29546;SDS011;40782;47.264;11.330;2022-09-30T03:28:22;15.68;;;14.07;;
29546;SDS011;40782;47.264;11.330;2022-09-30T03:30:54;15.30;;;13.73;;
29546;SDS011;40782;47.264;11.330;2022-09-30T03:33:33;15.55;;;14.05;;
29546;SDS011;40782;47.264;11.330;2022-09-30T03:36:11;15.15;;;13.65;;
29546;SDS011;40782;47.264;11.330;2022-09-30T03:38:44;14.65;;;13.02;;
29546;SDS011;40782;47.264;11.330;2022-09-30T03:41:16;13.30;;;12.00;;
29546;SDS011;40782;47.264;11.330;2022-09-30T03:43:53;14.88;;;12.50;;
29546;SDS011;40782;47.264;11.330;2022-09-30T03:46:28;14.02;;;12.63;;
29546;SDS011;40782;47.264;11.330;2022-09-30T03:49:01;16.58;;;13.68;;
29546;SDS011;40782;47.264;11.330;2022-09-30T03:51:32;18.70;;;14.03;;
29546;SDS011;40782;47.264;11.330;2022-09-30T03:54:05;14.33;;;12.83;;
29546;SDS011;40782;47.264;11.330;2022-09-30T03:59:02;16.38;;;14.68;;
29546;SDS011;40782;47.264;11.330;2022-09-30T04:01:30;15.68;;;13.88;;
29546;SDS011;40782;47.264;11.330;2022-09-30T04:03:57;17.50;;;15.15;;
29546;SDS011;40782;47.264;11.330;2022-09-30T04:06:24;18.55;;;15.77;;
29546;SDS011;40782;47.264;11.330;2022-09-30T04:08:53;17.73;;;15.57;;
29546;SDS011;40782;47.264;11.330;2022-09-30T04:11:20;17.17;;;15.38;;
29546;SDS011;40782;47.264;11.330;2022-09-30T04:13:50;18.15;;;16.10;;
29546;SDS011;40782;47.264;11.330;2022-09-30T04:16:17;17.95;;;16.08;;
29546;SDS011;40782;47.264;11.330;2022-09-30T04:18:46;18.17;;;16.27;;
29546;SDS011;40782;47.264;11.330;2022-09-30T04:21:14;19.02;;;17.02;;
29546;SDS011;40782;47.264;11.330;2022-09-30T04:23:41;16.60;;;14.93;;
29546;SDS011;40782;47.264;11.330;2022-09-30T04:26:11;17.95;;;16.05;;
29546;SDS011;40782;47.264;11.330;2022-09-30T04:28:42;19.02;;;16.35;;
29546;SDS011;40782;47.264;11.330;2022-09-30T04:31:10;18.65;;;16.70;;
29546;SDS011;40782;47.264;11.330;2022-09-30T04:33:38;18.65;;;16.50;;
29546;SDS011;40782;47.264;11.330;2022-09-30T04:36:09;18.90;;;16.90;;
29546;SDS011;40782;47.264;11.330;2022-09-30T04:38:36;17.63;;;15.82;;
29546;SDS011;40782;47.264;11.330;2022-09-30T04:41:04;17.40;;;15.60;;
29546;SDS011;40782;47.264;11.330;2022-09-30T04:43:42;19.77;;;17.60;;
29546;SDS011;40782;47.264;11.330;2022-09-30T04:46:10;18.85;;;16.85;;
29546;SDS011;40782;47.264;11.330;2022-09-30T04:48:38;19.33;;;16.20;;
29546;SDS011;40782;47.264;11.330;2022-09-30T04:51:07;18.23;;;16.38;;
29546;SDS011;40782;47.264;11.330;2022-09-30T04:53:34;18.50;;;16.33;;
29546;SDS011;40782;47.264;11.330;2022-09-30T04:56:04;17.13;;;15.30;;
29546;SDS011;40782;47.264;11.330;2022-09-30T04:58:32;16.95;;;15.10;;
29546;SDS011;40782;47.264;11.330;2022-09-30T05:01:01;15.00;;;13.43;;
29546;SDS011;40782;47.264;11.330;2022-09-30T05:03:35;16.50;;;14.75;;
29546;SDS011;40782;47.264;11.330;2022-09-30T05:06:13;16.08;;;14.38;;
29546;SDS011;40782;47.264;11.330;2022-09-30T05:08:53;18.25;;;15.07;;
29546;SDS011;40782;47.264;11.330;2022-09-30T05:11:21;17.50;;;15.73;;
29546;SDS011;40782;47.264;11.330;2022-09-30T05:13:50;17.42;;;15.55;;
29546;SDS011;40782;47.264;11.330;2022-09-30T05:16:20;18.98;;;17.00;;
29546;SDS011;40782;47.264;11.330;2022-09-30T05:18:49;18.92;;;16.95;;
29546;SDS011;40782;47.264;11.330;2022-09-30T05:21:24;18.45;;;16.50;;
29546;SDS011;40782;47.264;11.330;2022-09-30T05:23:52;18.90;;;17.00;;
29546;SDS011;40782;47.264;11.330;2022-09-30T05:26:25;17.65;;;15.77;;
29546;SDS011;40782;47.264;11.330;2022-09-30T05:28:58;18.40;;;16.60;;
29546;SDS011;40782;47.264;11.330;2022-09-30T05:31:27;19.38;;;17.38;;
29546;SDS011;40782;47.264;11.330;2022-09-30T05:34:10;18.25;;;16.27;;
29546;SDS011;40782;47.264;11.330;2022-09-30T05:36:41;18.23;;;16.33;;
29546;SDS011;40782;47.264;11.330;2022-09-30T05:39:18;18.73;;;16.83;;
29546;SDS011;40782;47.264;11.330;2022-09-30T05:41:47;17.15;;;15.45;;
29546;SDS011;40782;47.264;11.330;2022-09-30T05:44:20;19.13;;;16.20;;
29546;SDS011;40782;47.264;11.330;2022-09-30T05:46:50;16.23;;;14.57;;
29546;SDS011;40782;47.264;11.330;2022-09-30T05:49:28;16.08;;;14.55;;
29546;SDS011;40782;47.264;11.330;2022-09-30T05:51:59;17.85;;;15.95;;
29546;SDS011;40782;47.264;11.330;2022-09-30T05:54:29;17.10;;;15.27;;
29546;SDS011;40782;47.264;11.330;2022-09-30T05:57:00;15.25;;;13.75;;
29546;SDS011;40782;47.264;11.330;2022-09-30T05:59:27;16.48;;;14.80;;
29546;SDS011;40782;47.264;11.330;2022-09-30T06:02:00;16.38;;;14.73;;
29546;SDS011;40782;47.264;11.330;2022-09-30T06:04:27;15.00;;;13.50;;
29546;SDS011;40782;47.264;11.330;2022-09-30T06:06:56;14.82;;;13.32;;
29546;SDS011;40782;47.264;11.330;2022-09-30T06:09:23;17.05;;;15.32;;
29546;SDS011;40782;47.264;11.330;2022-09-30T06:11:50;16.33;;;14.70;;
29546;SDS011;40782;47.264;11.330;2022-09-30T06:14:23;15.25;;;13.85;;
29546;SDS011;40782;47.264;11.330;2022-09-30T06:16:50;16.98;;;15.15;;
29546;SDS011;40782;47.264;11.330;2022-09-30T06:19:18;15.25;;;13.73;;
29546;SDS011;40782;47.264;11.330;2022-09-30T06:21:46;13.35;;;12.13;;
29546;SDS011;40782;47.264;11.330;2022-09-30T06:24:16;16.67;;;14.98;;
29546;SDS011;40782;47.264;11.330;2022-09-30T06:26:43;15.57;;;14.00;;
29546;SDS011;40782;47.264;11.330;2022-09-30T06:29:10;15.40;;;13.45;;
29546;SDS011;40782;47.264;11.330;2022-09-30T06:31:37;15.77;;;14.15;;
29546;SDS011;40782;47.264;11.330;2022-09-30T06:34:04;16.15;;;14.65;;
29546;SDS011;40782;47.264;11.330;2022-09-30T06:36:33;20.65;;;16.23;;
29546;SDS011;40782;47.264;11.330;2022-09-30T06:39:01;16.45;;;14.70;;
29546;SDS011;40782;47.264;11.330;2022-09-30T06:41:29;17.65;;;15.85;;
29546;SDS011;40782;47.264;11.330;2022-09-30T06:43:57;16.42;;;14.85;;
29546;SDS011;40782;47.264;11.330;2022-09-30T06:46:24;17.60;;;15.80;;
29546;SDS011;40782;47.264;11.330;2022-09-30T06:48:53;16.10;;;14.50;;
29546;SDS011;40782;47.264;11.330;2022-09-30T06:51:20;16.35;;;14.75;;
29546;SDS011;40782;47.264;11.330;2022-09-30T06:53:50;15.38;;;13.85;;
29546;SDS011;40782;47.264;11.330;2022-09-30T06:56:18;15.55;;;14.05;;
29546;SDS011;40782;47.264;11.330;2022-09-30T06:58:45;14.98;;;13.52;;
29546;SDS011;40782;47.264;11.330;2022-09-30T07:01:12;14.43;;;13.13;;
29546;SDS011;40782;47.264;11.330;2022-09-30T07:03:40;15.40;;;13.90;;
29546;SDS011;40782;47.264;11.330;2022-09-30T07:06:09;16.15;;;12.98;;
29546;SDS011;40782;47.264;11.330;2022-09-30T07:11:10;12.93;;;11.73;;
29546;SDS011;40782;47.264;11.330;2022-09-30T07:13:40;13.05;;;11.70;;
29546;SDS011;40782;47.264;11.330;2022-09-30T07:16:10;11.75;;;10.65;;
29546;SDS011;40782;47.264;11.330;2022-09-30T07:18:38;12.07;;;10.88;;
29546;SDS011;40782;47.264;11.330;2022-09-30T07:21:07;11.80;;;10.70;;
29546;SDS011;40782;47.264;11.330;2022-09-30T07:23:34;10.75;;;9.73;;
29546;SDS011;40782;47.264;11.330;2022-09-30T07:26:02;11.02;;;10.02;;
29546;SDS011;40782;47.264;11.330;2022-09-30T07:28:33;10.27;;;9.38;;
29546;SDS011;40782;47.264;11.330;2022-09-30T07:31:06;11.27;;;10.18;;
29546;SDS011;40782;47.264;11.330;2022-09-30T07:33:36;9.77;;;8.88;;
29546;SDS011;40782;47.264;11.330;2022-09-30T07:36:04;10.13;;;9.13;;
29546;SDS011;40782;47.264;11.330;2022-09-30T07:38:33;10.27;;;9.38;;
29546;SDS011;40782;47.264;11.330;2022-09-30T07:41:03;10.35;;;9.45;;
29546;SDS011;40782;47.264;11.330;2022-09-30T07:43:33;10.77;;;9.80;;
29546;SDS011;40782;47.264;11.330;2022-09-30T07:48:33;9.88;;;9.07;;
29546;SDS011;40782;47.264;11.330;2022-09-30T07:51:08;9.73;;;8.82;;
29546;SDS011;40782;47.264;11.330;2022-09-30T07:53:36;10.15;;;9.25;;
29546;SDS011;40782;47.264;11.330;2022-09-30T07:56:04;11.15;;;9.65;;
29546;SDS011;40782;47.264;11.330;2022-09-30T07:58:33;11.27;;;8.98;;
29546;SDS011;40782;47.264;11.330;2022-09-30T08:01:00;9.68;;;8.82;;
29546;SDS011;40782;47.264;11.330;2022-09-30T08:03:28;9.32;;;8.52;;
29546;SDS011;40782;47.264;11.330;2022-09-30T08:05:55;10.60;;;9.70;;
29546;SDS011;40782;47.264;11.330;2022-09-30T08:08:22;9.00;;;8.20;;
29546;SDS011;40782;47.264;11.330;2022-09-30T08:10:59;8.38;;;7.68;;
29546;SDS011;40782;47.264;11.330;2022-09-30T08:13:27;7.60;;;7.00;;
29546;SDS011;40782;47.264;11.330;2022-09-30T08:15:55;7.63;;;6.78;;
29546;SDS011;40782;47.264;11.330;2022-09-30T08:18:22;6.32;;;5.82;;
29546;SDS011;40782;47.264;11.330;2022-09-30T08:20:51;7.88;;;7.18;;
29546;SDS011;40782;47.264;11.330;2022-09-30T08:23:19;8.65;;;7.85;;
29546;SDS011;40782;47.264;11.330;2022-09-30T08:25:47;8.40;;;7.60;;
29546;SDS011;40782;47.264;11.330;2022-09-30T08:28:14;7.65;;;6.90;;
29546;SDS011;40782;47.264;11.330;2022-09-30T08:30:42;7.85;;;7.10;;
29546;SDS011;40782;47.264;11.330;2022-09-30T08:33:11;9.98;;;8.52;;
29546;SDS011;40782;47.264;11.330;2022-09-30T08:35:38;11.38;;;9.45;;
29546;SDS011;40782;47.264;11.330;2022-09-30T08:38:05;12.80;;;9.40;;
29546;SDS011;40782;47.264;11.330;2022-09-30T08:40:33;10.75;;;8.07;;
29546;SDS011;40782;47.264;11.330;2022-09-30T08:43:15;7.15;;;5.80;;
29546;SDS011;40782;47.264;11.330;2022-09-30T08:45:56;6.60;;;5.47;;
29546;SDS011;40782;47.264;11.330;2022-09-30T08:48:37;7.07;;;5.43;;
29546;SDS011;40782;47.264;11.330;2022-09-30T08:51:16;5.30;;;4.80;;
29546;SDS011;40782;47.264;11.330;2022-09-30T08:53:59;4.55;;;4.15;;
29546;SDS011;40782;47.264;11.330;2022-09-30T08:56:31;4.93;;;3.95;;
29546;SDS011;40782;47.264;11.330;2022-09-30T08:59:00;5.45;;;3.70;;
29546;SDS011;40782;47.264;11.330;2022-09-30T09:01:32;4.43;;;4.13;;
29546;SDS011;40782;47.264;11.330;2022-09-30T09:04:03;4.00;;;3.70;;
29546;SDS011;40782;47.264;11.330;2022-09-30T09:09:19;3.92;;;3.63;;
29546;SDS011;40782;47.264;11.330;2022-09-30T09:12:05;3.55;;;3.28;;
29546;SDS011;40782;47.264;11.330;2022-09-30T09:14:46;3.20;;;3.00;;
29546;SDS011;40782;47.264;11.330;2022-09-30T09:17:26;3.92;;;3.63;;
29546;SDS011;40782;47.264;11.330;2022-09-30T09:20:10;4.32;;;3.97;;
29546;SDS011;40782;47.264;11.330;2022-09-30T09:22:39;5.05;;;4.65;;
29546;SDS011;40782;47.264;11.330;2022-09-30T09:25:10;5.72;;;4.68;;
29546;SDS011;40782;47.264;11.330;2022-09-30T09:27:43;6.40;;;4.85;;
29546;SDS011;40782;47.264;11.330;2022-09-30T09:30:16;5.30;;;4.80;;
29546;SDS011;40782;47.264;11.330;2022-09-30T09:32:49;5.22;;;4.78;;
29546;SDS011;40782;47.264;11.330;2022-09-30T09:35:25;4.72;;;4.32;;
29546;SDS011;40782;47.264;11.330;2022-09-30T09:38:00;5.03;;;4.53;;
29546;SDS011;40782;47.264;11.330;2022-09-30T09:40:54;4.82;;;4.07;;
29546;SDS011;40782;47.264;11.330;2022-09-30T09:43:29;5.55;;;5.00;;
29546;SDS011;40782;47.264;11.330;2022-09-30T09:46:08;6.68;;;6.07;;
29546;SDS011;40782;47.264;11.330;2022-09-30T09:48:40;5.68;;;5.25;;
29546;SDS011;40782;47.264;11.330;2022-09-30T09:51:11;5.85;;;5.35;;
29546;SDS011;40782;47.264;11.330;2022-09-30T09:53:48;5.40;;;4.90;;
29546;SDS011;40782;47.264;11.330;2022-09-30T10:01:36;5.95;;;4.95;;
29546;SDS011;40782;47.264;11.330;2022-09-30T10:04:06;5.57;;;5.07;;
29546;SDS011;40782;47.264;11.330;2022-09-30T10:06:44;6.25;;;4.95;;
29546;SDS011;40782;47.264;11.330;2022-09-30T10:09:21;5.22;;;4.75;;
29546;SDS011;40782;47.264;11.330;2022-09-30T10:14:56;4.88;;;4.40;;
29546;SDS011;40782;47.264;11.330;2022-09-30T10:17:26;5.65;;;4.45;;
29546;SDS011;40782;47.264;11.330;2022-09-30T10:19:57;4.18;;;3.88;;
29546;SDS011;40782;47.264;11.330;2022-09-30T10:22:30;4.60;;;4.15;;
29546;SDS011;40782;47.264;11.330;2022-09-30T10:25:08;3.72;;;3.42;;
29546;SDS011;40782;47.264;11.330;2022-09-30T10:27:54;3.95;;;3.55;;
29546;SDS011;40782;47.264;11.330;2022-09-30T10:30:31;5.30;;;4.28;;
29546;SDS011;40782;47.264;11.330;2022-09-30T10:33:10;4.32;;;3.92;;
29546;SDS011;40782;47.264;11.330;2022-09-30T10:35:51;2.97;;;2.78;;
29546;SDS011;40782;47.264;11.330;2022-09-30T10:38:21;4.63;;;3.00;;
29546;SDS011;40782;47.264;11.330;2022-09-30T10:40:53;3.00;;;2.72;;
29546;SDS011;40782;47.264;11.330;2022-09-30T10:43:22;2.85;;;2.75;;
29546;SDS011;40782;47.264;11.330;2022-09-30T10:45:51;3.45;;;2.75;;
29546;SDS011;40782;47.264;11.330;2022-09-30T10:48:21;2.65;;;2.45;;
29546;SDS011;40782;47.264;11.330;2022-09-30T10:50:50;2.13;;;2.03;;
29546;SDS011;40782;47.264;11.330;2022-09-30T10:53:21;2.33;;;2.20;;
29546;SDS011;40782;47.264;11.330;2022-09-30T10:55:50;2.45;;;2.30;;
29546;SDS011;40782;47.264;11.330;2022-09-30T10:58:28;2.35;;;2.25;;
29546;SDS011;40782;47.264;11.330;2022-09-30T11:01:02;2.97;;;2.78;;
29546;SDS011;40782;47.264;11.330;2022-09-30T11:03:38;2.88;;;2.78;;
29546;SDS011;40782;47.264;11.330;2022-09-30T11:06:14;2.83;;;2.58;;
29546;SDS011;40782;47.264;11.330;2022-09-30T11:08:45;2.45;;;2.33;;
29546;SDS011;40782;47.264;11.330;2022-09-30T11:11:18;3.38;;;2.50;;
29546;SDS011;40782;47.264;11.330;2022-09-30T11:13:52;2.47;;;2.38;;
29546;SDS011;40782;47.264;11.330;2022-09-30T11:16:24;2.28;;;2.15;;
29546;SDS011;40782;47.264;11.330;2022-09-30T11:18:59;2.58;;;2.35;;
29546;SDS011;40782;47.264;11.330;2022-09-30T11:21:33;2.35;;;2.20;;
29546;SDS011;40782;47.264;11.330;2022-09-30T11:24:10;1.92;;;1.83;;
29546;SDS011;40782;47.264;11.330;2022-09-30T11:26:52;2.10;;;2.00;;
29546;SDS011;40782;47.264;11.330;2022-09-30T11:29:46;2.63;;;2.50;;
29546;SDS011;40782;47.264;11.330;2022-09-30T11:32:27;2.30;;;2.10;;
29546;SDS011;40782;47.264;11.330;2022-09-30T11:35:07;2.53;;;1.80;;
29546;SDS011;40782;47.264;11.330;2022-09-30T11:37:51;2.00;;;1.90;;
29546;SDS011;40782;47.264;11.330;2022-09-30T11:40:36;2.72;;;2.20;;
29546;SDS011;40782;47.264;11.330;2022-09-30T11:43:13;2.28;;;2.08;;
29546;SDS011;40782;47.264;11.330;2022-09-30T11:45:55;2.00;;;1.90;;
29546;SDS011;40782;47.264;11.330;2022-09-30T11:48:42;2.10;;;2.00;;
29546;SDS011;40782;47.264;11.330;2022-09-30T11:51:24;2.15;;;2.05;;
29546;SDS011;40782;47.264;11.330;2022-09-30T11:54:01;2.58;;;2.38;;
29546;SDS011;40782;47.264;11.330;2022-09-30T11:56:47;2.03;;;1.92;;
29546;SDS011;40782;47.264;11.330;2022-09-30T11:59:21;2.70;;;2.60;;
29546;SDS011;40782;47.264;11.330;2022-09-30T12:01:52;2.60;;;2.40;;
29546;SDS011;40782;47.264;11.330;2022-09-30T12:04:26;2.53;;;2.42;;
29546;SDS011;40782;47.264;11.330;2022-09-30T12:06:57;2.20;;;2.10;;
29546;SDS011;40782;47.264;11.330;2022-09-30T12:09:28;2.63;;;2.42;;
29546;SDS011;40782;47.264;11.330;2022-09-30T12:12:02;2.45;;;2.25;;
29546;SDS011;40782;47.264;11.330;2022-09-30T12:14:33;4.35;;;2.67;;
29546;SDS011;40782;47.264;11.330;2022-09-30T12:17:06;2.45;;;2.30;;
29546;SDS011;40782;47.264;11.330;2022-09-30T12:19:44;2.75;;;2.55;;
29546;SDS011;40782;47.264;11.330;2022-09-30T12:22:15;3.47;;;2.78;;
29546;SDS011;40782;47.264;11.330;2022-09-30T12:24:47;2.72;;;2.50;;
29546;SDS011;40782;47.264;11.330;2022-09-30T12:27:17;2.80;;;2.53;;
29546;SDS011;40782;47.264;11.330;2022-09-30T12:29:51;3.08;;;2.72;;
29546;SDS011;40782;47.264;11.330;2022-09-30T12:32:49;3.72;;;2.88;;
29546;SDS011;40782;47.264;11.330;2022-09-30T12:35:53;3.22;;;2.85;;
29546;SDS011;40782;47.264;11.330;2022-09-30T12:41:24;2.65;;;2.50;;
29546;SDS011;40782;47.264;11.330;2022-09-30T12:47:11;2.75;;;2.55;;
29546;SDS011;40782;47.264;11.330;2022-09-30T12:49:46;2.78;;;2.58;;
29546;SDS011;40782;47.264;11.330;2022-09-30T12:52:16;2.17;;;2.08;;
29546;SDS011;40782;47.264;11.330;2022-09-30T12:54:46;2.00;;;1.90;;
29546;SDS011;40782;47.264;11.330;2022-09-30T12:57:17;2.38;;;2.28;;
29546;SDS011;40782;47.264;11.330;2022-09-30T12:59:52;3.67;;;2.30;;
29546;SDS011;40782;47.264;11.330;2022-09-30T13:02:25;1.73;;;1.63;;
29546;SDS011;40782;47.264;11.330;2022-09-30T13:08:09;2.45;;;1.83;;
29546;SDS011;40782;47.264;11.330;2022-09-30T13:10:55;2.10;;;1.90;;
29546;SDS011;40782;47.264;11.330;2022-09-30T13:13:24;1.70;;;1.70;;
29546;SDS011;40782;47.264;11.330;2022-09-30T13:15:56;2.38;;;1.75;;
29546;SDS011;40782;47.264;11.330;2022-09-30T13:21:26;1.20;;;1.02;;
29546;SDS011;40782;47.264;11.330;2022-09-30T13:23:56;1.00;;;1.00;;
29546;SDS011;40782;47.264;11.330;2022-09-30T13:26:35;1.77;;;1.15;;
29546;SDS011;40782;47.264;11.330;2022-09-30T13:32:06;1.10;;;1.10;;
29546;SDS011;40782;47.264;11.330;2022-09-30T13:34:47;1.27;;;1.27;;
29546;SDS011;40782;47.264;11.330;2022-09-30T13:37:36;1.30;;;1.20;;
29546;SDS011;40782;47.264;11.330;2022-09-30T13:40:12;0.88;;;0.88;;
29546;SDS011;40782;47.264;11.330;2022-09-30T13:42:49;1.20;;;1.15;;
29546;SDS011;40782;47.264;11.330;2022-09-30T13:45:20;1.70;;;1.60;;
29546;SDS011;40782;47.264;11.330;2022-09-30T13:48:00;1.90;;;1.80;;
29546;SDS011;40782;47.264;11.330;2022-09-30T13:50:40;1.90;;;1.80;;
29546;SDS011;40782;47.264;11.330;2022-09-30T13:53:16;2.45;;;2.00;;
29546;SDS011;40782;47.264;11.330;2022-09-30T13:55:49;4.13;;;2.08;;
29546;SDS011;40782;47.264;11.330;2022-09-30T13:58:29;2.35;;;1.90;;
29546;SDS011;40782;47.264;11.330;2022-09-30T14:04:03;1.58;;;1.48;;
29546;SDS011;40782;47.264;11.330;2022-09-30T14:06:50;1.10;;;1.10;;
29546;SDS011;40782;47.264;11.330;2022-09-30T14:09:34;1.30;;;1.20;;
29546;SDS011;40782;47.264;11.330;2022-09-30T14:12:23;1.48;;;1.38;;
29546;SDS011;40782;47.264;11.330;2022-09-30T14:18:05;1.70;;;1.50;;
29546;SDS011;40782;47.264;11.330;2022-09-30T14:20:56;1.30;;;1.30;;
29546;SDS011;40782;47.264;11.330;2022-09-30T14:23:30;1.00;;;1.00;;
29546;SDS011;40782;47.264;11.330;2022-09-30T14:25:58;1.50;;;1.40;;
29546;SDS011;40782;47.264;11.330;2022-09-30T14:28:40;1.25;;;1.25;;
29546;SDS011;40782;47.264;11.330;2022-09-30T14:31:12;1.10;;;1.10;;
29546;SDS011;40782;47.264;11.330;2022-09-30T14:33:40;3.08;;;2.13;;
29546;SDS011;40782;47.264;11.330;2022-09-30T14:36:14;2.05;;;1.60;;
29546;SDS011;40782;47.264;11.330;2022-09-30T14:38:44;1.10;;;1.00;;
29546;SDS011;40782;47.264;11.330;2022-09-30T14:41:17;1.38;;;1.27;;
29546;SDS011;40782;47.264;11.330;2022-09-30T14:43:47;1.40;;;1.30;;
29546;SDS011;40782;47.264;11.330;2022-09-30T14:46:22;1.98;;;1.42;;
29546;SDS011;40782;47.264;11.330;2022-09-30T14:48:53;1.40;;;1.30;;
29546;SDS011;40782;47.264;11.330;2022-09-30T14:51:25;1.17;;;1.17;;
29546;SDS011;40782;47.264;11.330;2022-09-30T14:53:54;1.10;;;1.10;;
29546;SDS011;40782;47.264;11.330;2022-09-30T14:56:25;0.90;;;0.90;;
29546;SDS011;40782;47.264;11.330;2022-09-30T14:58:56;0.90;;;0.88;;
29546;SDS011;40782;47.264;11.330;2022-09-30T15:01:24;0.65;;;0.60;;
29546;SDS011;40782;47.264;11.330;2022-09-30T15:03:56;0.70;;;0.70;;
29546;SDS011;40782;47.264;11.330;2022-09-30T15:06:31;0.43;;;0.43;;
29546;SDS011;40782;47.264;11.330;2022-09-30T15:09:03;0.63;;;0.63;;
29546;SDS011;40782;47.264;11.330;2022-09-30T15:11:32;0.70;;;0.70;;
29546;SDS011;40782;47.264;11.330;2022-09-30T15:14:01;0.60;;;0.60;;
29546;SDS011;40782;47.264;11.330;2022-09-30T15:16:31;0.40;;;0.40;;
29546;SDS011;40782;47.264;11.330;2022-09-30T15:18:59;23.05;;;14.02;;
29546;SDS011;40782;47.264;11.330;2022-09-30T15:21:27;10.65;;;6.57;;
29546;SDS011;40782;47.264;11.330;2022-09-30T15:23:59;1.15;;;1.15;;
29546;SDS011;40782;47.264;11.330;2022-09-30T15:26:27;0.80;;;0.80;;
29546;SDS011;40782;47.264;11.330;2022-09-30T15:28:54;0.63;;;0.60;;
29546;SDS011;40782;47.264;11.330;2022-09-30T15:31:22;2.70;;;0.70;;
29546;SDS011;40782;47.264;11.330;2022-09-30T15:34:04;0.60;;;0.60;;
29546;SDS011;40782;47.264;11.330;2022-09-30T15:36:34;0.98;;;0.98;;
29546;SDS011;40782;47.264;11.330;2022-09-30T15:39:02;3.90;;;2.88;;
29546;SDS011;40782;47.264;11.330;2022-09-30T15:41:36;1.13;;;1.08;;
29546;SDS011;40782;47.264;11.330;2022-09-30T15:44:12;0.57;;;0.57;;
29546;SDS011;40782;47.264;11.330;2022-09-30T15:46:58;0.60;;;0.60;;
29546;SDS011;40782;47.264;11.330;2022-09-30T15:49:30;0.65;;;0.65;;
29546;SDS011;40782;47.264;11.330;2022-09-30T15:54:53;2.03;;;1.60;;